Trindle Spring, Pennsylvania
Current Conditions -  °F | °C
As of 6:56 AM on Monday 22 Dec 2014 (Local Time) from KCXY Reporting Station
Haze Haze  
Wind Chill: 20°   Ceiling: Unl
Heat Index: 20°   Visibility: 5mi
Dew Point: 16°   Wind: 0mph
Humidity: 85%   Direction: NA
Pressure: 30.32"   Gusts: NA
Location:  40.2485°N, 77.0142°W
Report Text: KCXY 221156Z 00000KT 5SM BR CLR M07/M09 A3032 RMK AO2 SLP273 I1000 I6000 T10671089 11050 21067 55000
Loading
Personal Weather Stations






























Interactive Weather Map New forecast layout! Learn more

10-Day Weather Forecast

Advertisements
Track Severe Weather on mobile